Latest Weather Observations for Kalgoorlie-Boulder

IDW60801

Issued at 2:33 am WST Thursday 29 September 2016 (issued every 30 minutes, with the page automatically refreshed every 10 minutes)

About weather observations | Map of weather stations | Latest weather observations for WA | Other Formats
Station Details ID: 012038 Name: KALGOORLIE-BOULDER AIRPORT Lat: -30.78 Lon: 121.45 Height: 365.3 m
Data from the previous 72 hours. | See also: Recent months at Kalgoorlie-Boulder
Date/Time
WST
Temp
°C
App
Temp
°C
Dew
Point
°C
Rel
Hum
%
Delta-T
°C
Wind Press
QNH
hPa
Press
MSL
hPa
Rain since
9am
mm
Dir  Spd
km/h
Gust
km/h
Spd
kts
Gust
kts
29/02:30am 3.4 -0.2 0.8 83 1.0 SSW 9 11 5 6 1021.4 - 0.2
29/02:00am 3.4 -0.2 0.6 82 1.1 SW 9 13 5 7 1021.3 - 0.2
29/01:30am 3.5 0.2 0.2 79 1.3 SW 7 9 4 5 1021.3 - 0.2
29/01:00am 4.1 0.5 0.8 79 1.3 SSW 9 11 5 6 1021.4 - 0.2
29/12:30am 5.1 1.2 0.9 74 1.7 S 11 15 6 8 1021.7 - 0.2
29/12:00am 5.9 1.2 1.1 71 1.9 S 15 24 8 13 1022.1 1021.6 0.2
 
Date/Time
WST
Temp
°C
App
Temp
°C
Dew
Point
°C
Rel
Hum
%
Delta-T
°C
Wind Press
QNH
hPa
Press
MSL
hPa
Rain since
9am
mm
Dir  Spd
km/h
Gust
km/h
Spd
kts
Gust
kts
28/11:30pm 6.4 1.0 1.1 69 2.2 S 19 26 10 14 1022.0 - 0.2
28/11:00pm 6.9 2.2 0.8 65 2.5 S 15 20 8 11 1022.0 - 0.2
28/10:30pm 7.2 2.8 0.6 63 2.7 S 13 20 7 11 1022.0 - 0.2
28/10:00pm 7.9 2.2 0.4 59 3.0 S 20 30 11 16 1022.0 - 0.2
28/09:30pm 8.4 2.8 0.1 56 3.4 SSE 19 26 10 14 1021.8 - 0.2
28/09:00pm 8.9 3.5 -1.2 49 4.0 SSE 17 20 9 11 1021.6 1021.1 0.2
28/08:30pm 8.6 3.9 -2.1 47 4.1 S 13 19 7 10 1021.4 - 0.2
28/08:00pm 9.5 5.2 -1.8 45 4.4 S 11 15 6 8 1021.2 - 0.2
28/07:30pm 10.2 5.2 -1.5 44 4.7 S 15 20 8 11 1021.0 - 0.2
28/07:00pm 10.9 5.1 -1.2 43 4.9 S 19 24 10 13 1020.8 - 0.2
28/06:30pm 11.4 5.9 -2.0 39 5.3 S 17 22 9 12 1020.5 - 0.2
28/06:00pm 12.0 5.1 -2.6 36 5.8 S 24 37 13 20 1020.0 1019.5 0.2
28/05:30pm 13.1 6.1 -3.2 32 6.4 S 24 32 13 17 1019.3 - 0.2
28/05:00pm 13.9 6.1 -3.4 30 6.9 SSW 28 41 15 22 1018.8 - 0.2
28/04:30pm 14.2 6.1 -3.1 30 6.9 SSW 30 41 16 22 1018.4 - 0.2
28/04:00pm 14.9 6.8 -3.4 28 7.3 SW 30 35 16 19 1018.1 - 0.2
28/03:30pm 15.3 7.1 -3.6 27 7.6 SW 30 48 16 26 1017.9 - 0.2
28/03:00pm 15.2 7.4 -3.6 27 7.5 SSW 28 46 15 25 1017.7 1017.1 0.2
28/02:30pm 14.7 6.9 -3.6 28 7.3 SSW 28 48 15 26 1017.7 - 0.2
28/02:00pm 14.8 6.2 -4.0 27 7.4 SW 32 52 17 28 1017.8 - 0.2
28/01:36pm 14.6 6.4 -4.2 27 7.4 SSW 30 48 16 26 1017.8 - 0.2
28/01:30pm 15.5 8.5 -3.9 26 7.7 SSW 24 35 13 19 1017.7 - 0.2
28/01:00pm 14.4 5.8 -3.9 28 7.2 SW 32 57 17 31 1017.9 - 0.2
28/12:30pm 14.3 5.8 -3.5 29 7.1 SW 32 50 17 27 1017.9 - 0.2
28/12:11pm 13.7 5.2 -3.5 30 6.8 SSW 32 50 17 27 1017.9 - 0.2
28/12:05pm 13.7 3.8 -4.0 29 6.9 SSW 39 50 21 27 1018.0 - 0.2
28/12:00pm 13.3 3.4 -4.3 29 6.8 SW 39 50 21 27 1017.9 1017.3 0.2
28/11:44am 13.0 3.8 -4.6 29 6.7 SW 35 59 19 32 1018.1 - 0.2
28/11:30am 12.9 3.7 -4.2 30 6.6 SSW 35 52 19 28 1018.1 - 0.2
28/11:15am 12.4 3.7 -3.8 32 6.3 SSW 33 57 18 31 1018.2 - 0.2
28/11:00am 12.5 4.0 -3.3 33 6.2 SW 32 44 17 24 1018.1 - 0.2
28/10:32am 11.5 2.3 -4.2 33 5.9 SW 35 54 19 29 1018.2 - 0.0
28/10:30am 11.6 2.4 -4.1 33 6.0 SW 35 50 19 27 1018.3 - 0.0
28/10:00am 11.4 2.7 -3.1 36 5.6 SW 33 50 18 27 1018.2 - 0.0
28/09:44am 11.3 2.9 -2.1 39 5.3 SW 32 50 17 27 1018.2 - 0.0
28/09:30am 10.8 1.8 -2.6 39 5.2 SSW 35 52 19 28 1018.1 - 0.0
28/09:14am 10.3 0.5 -2.7 40 5.0 SW 39 59 21 32 1018.0 - 0.0
28/09:00am 9.0 0.7 -1.4 48 4.1 SW 32 44 17 24 1018.1 1017.6 0.4
28/08:30am 9.4 1.0 -1.3 47 4.2 SW 33 52 18 28 1017.7 - 0.4
28/08:24am 9.4 1.5 -1.6 46 4.3 SW 30 52 16 28 1017.6 - 0.4
28/08:00am 8.6 0.7 -1.2 50 3.9 SW 30 41 16 22 1017.2 - 0.4
28/07:44am 7.9 -0.5 -1.1 53 3.5 SW 33 54 18 29 1016.9 - 0.4
28/07:30am 7.1 -1.1 -0.8 57 3.1 SW 32 46 17 25 1016.7 - 0.4
28/07:00am 6.8 -0.9 -0.4 60 2.8 SW 30 44 16 24 1016.0 - 0.4
28/06:30am 6.2 -1.2 -0.5 62 2.6 WSW 28 50 15 27 1015.5 - 0.4
28/06:00am 6.0 -1.4 -0.5 63 2.5 WSW 28 46 15 25 1014.9 1014.3 0.4
28/05:34am 6.2 -1.1 -0.1 64 2.5 WSW 28 46 15 25 1014.4 - 0.2
28/05:30am 6.2 -1.9 -0.1 64 2.5 WSW 32 46 17 25 1014.4 - 0.2
28/05:00am 5.9 -2.4 -0.2 65 2.4 WSW 33 52 18 28 1013.7 - 0.2
28/04:30am 6.1 -2.0 0.0 65 2.4 WSW 32 48 17 26 1012.9 - 0.2
28/04:00am 6.5 -1.7 0.4 65 2.4 WSW 33 56 18 30 1012.6 - 0.2
28/03:43am 7.0 -0.1 1.1 66 2.4 WSW 28 50 15 27 1012.1 - 0.2
28/03:30am 6.8 1.0 2.3 73 1.9 WSW 22 37 12 20 1012.0 - 0.2
28/03:00am 6.9 0.4 2.6 74 1.8 WSW 26 41 14 22 1011.5 1011.0 0.2
28/02:30am 7.5 1.4 2.6 71 2.1 WSW 24 33 13 18 1011.2 - 0.2
28/02:00am 7.4 0.5 2.3 70 2.2 WSW 28 43 15 23 1011.2 - 0.2
28/01:35am 7.7 -0.2 2.2 68 2.3 WSW 33 52 18 28 1011.1 - 0.2
28/01:30am 7.8 -0.9 2.3 68 2.3 WSW 37 52 20 28 1011.1 - 0.2
28/01:16am 8.0 -0.2 2.5 68 2.4 WSW 35 57 19 31 1011.0 - 0.2
28/01:00am 8.0 0.4 2.9 70 2.2 WSW 32 44 17 24 1011.0 - 0.2
28/12:30am 8.1 1.6 4.5 78 1.6 W 28 43 15 23 1011.1 - 0.2
28/12:00am 8.2 2.1 4.8 79 1.5 W 26 39 14 21 1010.8 1010.2 0.2
 
Date/Time
WST
Temp
°C
App
Temp
°C
Dew
Point
°C
Rel
Hum
%
Delta-T
°C
Wind Press
QNH
hPa
Press
MSL
hPa
Rain since
9am
mm
Dir  Spd
km/h
Gust
km/h
Spd
kts
Gust
kts
27/11:30pm 8.5 1.4 5.3 80 1.5 WSW 32 50 17 27 1010.6 - 0.2
27/11:00pm 8.4 0.1 5.9 84 1.2 WSW 39 61 21 33 1010.6 - 0.2
27/10:47pm 10.2 3.3 6.5 78 1.8 W 32 50 17 27 1010.4 - 0.0
27/10:30pm 10.7 4.5 6.1 73 2.2 W 28 43 15 23 1010.1 - 0.0
27/10:00pm 10.7 3.7 5.9 72 2.3 W 32 50 17 27 1010.1 - 0.0
27/09:51pm 10.8 3.8 6.0 72 2.3 W 32 50 17 27 1010.0 - 0.0
27/09:30pm 10.6 4.9 6.6 76 1.9 W 26 39 14 21 1010.1 - 0.0
27/09:02pm 10.3 4.0 7.5 83 1.4 WSW 30 48 16 26 1010.1 - 0.0
27/09:00pm 10.2 3.4 7.1 81 1.5 WSW 32 48 17 26 1010.1 1009.5 0.0
27/08:30pm 11.1 3.8 7.4 78 1.8 WSW 35 54 19 29 1009.9 - 0.0
27/08:00pm 11.8 1.8 7.7 76 2.0 WSW 50 69 27 37 1009.2 - 0.0
27/07:43pm 15.5 3.0 6.0 53 4.7 WSW 61 80 33 43 1008.0 - 0.0
27/07:42pm 16.2 7.5 6.1 51 5.0 WSW 41 80 22 43 1007.8 - 0.0
27/07:39pm 18.0 10.2 6.8 48 5.7 W 37 56 20 30 1007.5 - 0.0
27/07:30pm 18.2 10.0 6.4 46 6.0 W 39 54 21 29 1007.1 - 0.0
27/07:28pm 18.4 10.0 5.6 43 6.4 W 39 52 21 28 1007.1 - 0.0
27/07:00pm 17.7 10.4 5.6 45 6.0 WNW 33 57 18 31 1006.7 - 0.0
27/06:57pm 20.0 13.1 4.5 36 7.6 WNW 30 57 16 31 1006.3 - 0.0
27/06:30pm 20.6 14.3 1.5 28 8.9 WNW 24 37 13 20 1005.8 - 0.0
27/06:00pm 20.8 14.4 1.1 27 9.2 W 24 37 13 20 1005.9 1005.3 0.0
27/05:30pm 21.3 14.1 1.0 26 9.4 WNW 28 50 15 27 1005.6 - 0.0
27/05:04pm 22.1 14.9 0.6 24 10.0 WNW 28 48 15 26 1005.6 - 0.0
27/05:00pm 22.4 15.6 0.9 24 10.0 WNW 26 39 14 21 1005.6 - 0.0
27/04:30pm 22.9 14.9 0.7 23 10.4 WNW 32 46 17 25 1005.7 - 0.0
27/04:16pm 23.3 15.7 0.4 22 10.7 WNW 30 48 16 26 1005.8 - 0.0
27/04:00pm 23.1 15.4 0.2 22 10.6 W 30 39 16 21 1005.9 - 0.0
27/03:48pm 23.8 15.8 0.2 21 11.0 W 32 50 17 27 1006.1 - 0.0
27/03:30pm 23.5 14.8 -0.7 20 11.1 WNW 35 46 19 25 1006.3 - 0.0
27/03:13pm 23.4 15.7 -0.1 21 10.9 WNW 30 52 16 28 1006.6 - 0.0
27/03:00pm 22.9 15.6 0.1 22 10.6 WNW 28 41 15 22 1006.7 1006.1 0.0
27/02:33pm 24.0 16.4 0.4 21 11.1 WNW 30 48 16 26 1007.2 - 0.0
27/02:30pm 23.6 15.3 0.0 21 10.9 WNW 33 48 18 26 1007.3 - 0.0
27/02:00pm 23.4 15.4 0.5 22 10.7 NW 32 44 17 24 1007.9 - 0.0
27/01:35pm 22.7 14.8 1.1 24 10.2 NW 32 50 17 27 1008.4 - 0.0
27/01:30pm 22.9 14.9 0.7 23 10.4 NW 32 46 17 25 1008.5 - 0.0
27/01:00pm 23.5 16.1 1.8 24 10.4 NW 30 48 16 26 1009.3 - 0.0
27/12:52pm 22.9 15.7 0.7 23 10.4 NW 28 48 15 26 1009.4 - 0.0
27/12:30pm 22.0 16.6 2.2 27 9.5 NW 20 28 11 15 1010.1 - 0.0
27/12:00pm 21.6 16.3 2.8 29 9.1 WNW 20 35 11 19 1010.9 1010.4 0.0
27/11:30am 20.5 14.9 3.7 33 8.2 NW 22 39 12 21 1011.9 - 0.0
27/11:00am 19.5 14.8 5.2 39 7.1 NW 19 28 10 15 1012.8 - 0.0
27/10:30am 18.8 13.9 4.9 40 6.8 NNW 20 30 11 16 1013.6 - 0.0
27/10:00am 17.8 14.4 5.7 45 6.0 NW 13 24 7 13 1014.4 - 0.0
27/09:30am 16.6 12.8 5.6 48 5.4 NW 15 22 8 12 1014.9 - 0.0
27/09:00am 15.6 12.0 5.2 50 5.0 NW 13 17 7 9 1015.4 1014.8 0.0
27/08:30am 14.2 11.5 5.6 56 4.2 W 9 15 5 8 1015.7 - 0.0
27/08:00am 13.5 10.5 5.9 60 3.7 W 11 15 6 8 1016.2 - 0.0
27/07:30am 12.4 8.9 5.6 63 3.2 W 13 17 7 9 1016.2 - 0.0
27/07:00am 11.2 8.4 5.1 66 2.8 NW 9 13 5 7 1016.4 - 0.0
27/06:30am 9.0 6.2 3.2 67 2.5 NNW 7 7 4 4 1016.4 - 0.0
27/06:00am 7.0 4.2 2.1 71 2.1 WNW 6 7 3 4 1016.3 1015.8 0.0
27/05:30am 6.7 3.8 1.6 70 2.1 NW 6 7 3 4 1016.1 - 0.0
27/05:00am 6.9 4.0 1.4 68 2.3 NW 6 7 3 4 1016.2 - 0.0
27/04:30am 7.6 4.6 2.1 68 2.3 NW 7 9 4 5 1016.2 - 0.0
27/04:00am 8.9 6.0 2.5 64 2.8 WNW 7 9 4 5 1016.1 - 0.0
27/03:30am 9.2 6.3 2.5 63 2.9 WNW 7 9 4 5 1016.1 - 0.0
27/03:00am 9.3 5.9 1.9 60 3.2 W 9 11 5 6 1016.0 1015.5 0.0
27/02:30am 9.9 6.6 2.5 60 3.2 W 9 11 5 6 1016.2 - 0.0
27/02:00am 9.2 6.4 1.9 60 3.1 WSW 6 9 3 5 1016.5 - 0.0
27/01:30am 8.9 6.2 0.1 54 3.6 SW 4 6 2 3 1016.5 - 0.0
27/01:00am 10.6 7.5 1.2 52 4.0 SW 7 9 4 5 1016.7 - 0.0
27/12:30am 11.3 7.4 1.3 50 4.3 SW 11 13 6 7 1016.8 - 0.0
27/12:00am 12.0 7.6 0.5 45 4.9 SW 13 17 7 9 1017.0 1016.5 0.0
 
Date/Time
WST
Temp
°C
App
Temp
°C
Dew
Point
°C
Rel
Hum
%
Delta-T
°C
Wind Press
QNH
hPa
Press
MSL
hPa
Rain since
9am
mm
Dir  Spd
km/h
Gust
km/h
Spd
kts
Gust
kts
26/11:30pm 13.1 8.6 -0.2 40 5.6 SW 13 17 7 9 1017.1 - 0.0
26/11:00pm 12.9 8.7 -1.1 38 5.8 SW 11 15 6 8 1017.1 - 0.0
26/10:41pm 13.8 9.2 -1.0 36 6.2 SW 13 17 7 9 1017.2 - 0.0
26/10:30pm 13.6 9.4 -1.2 36 6.1 SW 11 15 6 8 1017.3 - 0.0
26/10:20pm 13.3 9.0 -1.8 35 6.2 SW 11 15 6 8 1017.6 - 0.0
26/10:00pm 14.6 9.9 -1.9 32 6.8 WSW 13 17 7 9 1017.6 - 0.0
26/09:30pm 14.9 9.8 -2.1 31 7.0 WSW 15 19 8 10 1017.4 - 0.0
26/09:00pm 15.4 10.3 -2.1 30 7.2 WSW 15 19 8 10 1017.6 1017.0 0.0
26/08:30pm 15.0 10.2 -2.4 30 7.1 WSW 13 15 7 8 1017.4 - 0.0
26/08:00pm 14.5 10.1 -2.8 30 7.0 W 11 11 6 6 1017.4 - 0.0
26/07:30pm 16.0 12.2 -3.5 26 7.9 W 7 9 4 5 1017.2 - 0.0
26/07:00pm 16.7 12.6 -3.4 25 8.2 W 9 13 5 7 1016.8 - 0.0
26/06:30pm 17.3 13.2 -3.4 24 8.5 W 9 11 5 6 1016.4 - 0.0
26/06:00pm 19.1 14.2 -3.7 21 9.4 W 13 22 7 12 1016.2 1015.7 0.0
26/05:30pm 20.2 15.2 -4.1 19 10.1 WSW 13 17 7 9 1015.9 - 0.0
26/05:00pm 21.0 16.0 -4.2 18 10.5 W 13 22 7 12 1015.8 - 0.0
26/04:30pm 21.6 16.6 -4.5 17 10.9 WNW 13 19 7 10 1015.4 - 0.0
26/04:00pm 21.5 16.2 -3.8 18 10.7 W 15 20 8 11 1015.5 - 0.0
26/03:30pm 21.5 16.6 -3.8 18 10.7 WNW 13 24 7 13 1015.6 - 0.0
26/03:00pm 21.2 15.2 -3.3 19 10.4 W 19 28 10 15 1015.7 1015.2 0.0
26/02:30pm 20.0 13.7 -3.6 20 9.9 NNW 20 28 11 15 1016.2 - 0.0
26/02:00pm 20.4 14.4 -3.3 20 10.0 W 19 26 10 14 1016.5 - 0.0
26/01:30pm 19.8 13.1 -3.8 20 9.8 WSW 22 32 12 17 1016.7 - 0.0
26/01:00pm 19.1 14.6 -3.1 22 9.3 W 11 15 6 8 1017.3 - 0.0
26/12:30pm 17.7 12.7 -4.3 22 8.9 WNW 13 22 7 12 1017.9 - 0.0
26/12:00pm 16.9 11.3 -2.7 26 8.1 SSW 17 26 9 14 1018.6 1018.1 0.0
26/11:30am 16.0 10.8 -3.0 27 7.8 W 15 24 8 13 1019.1 - 0.0
26/11:00am 15.4 10.6 -2.5 29 7.3 W 13 26 7 14 1019.6 - 0.0
26/10:30am 15.6 11.0 -1.0 32 7.0 W 13 20 7 11 1020.0 - 0.0
26/10:00am 14.5 10.4 -0.4 36 6.3 N 11 24 6 13 1020.3 - 0.0
26/09:30am 13.0 8.9 -0.3 40 5.6 WNW 11 19 6 10 1020.8 - 0.0
26/09:00am 12.6 8.9 0.0 42 5.3 NNE 9 15 5 8 1021.1 1020.6 0.0
26/08:30am 12.0 7.9 -0.2 43 5.1 NNE 11 15 6 8 1020.8 - 0.0
26/08:00am 10.7 6.4 1.0 51 4.1 NNE 13 22 7 12 1020.6 - 0.0
26/07:30am 9.7 5.9 1.8 58 3.4 NNE 11 17 6 9 1020.3 - 0.0
26/07:00am 8.3 5.9 2.1 65 2.6 WNW 4 7 2 4 1020.1 - 0.0
26/06:30am 5.0 3.3 1.7 79 1.3 CALM 0 0 0 0 1019.5 - 0.0
26/06:00am 3.5 0.5 0.7 82 1.1 SW 6 7 3 4 1019.2 1018.7 0.0
26/05:30am 3.6 1.6 0.1 78 1.3 CALM 0 0 0 0 1018.9 - 0.0
26/05:00am 4.0 2.0 0.0 75 1.5 CALM 0 0 0 0 1018.8 - 0.0
26/04:30am 4.6 1.4 0.9 77 1.5 SSE 7 9 4 5 1018.4 - 0.0
26/04:00am 4.9 1.4 1.0 76 1.6 SSE 9 9 5 5 1018.1 - 0.0
26/03:30am 5.1 2.1 1.0 75 1.6 SSE 6 7 3 4 1018.0 - 0.0
26/03:00am 4.9 1.7 0.9 75 1.6 ESE 7 9 4 5 1017.8 1017.2 0.0

Other Formats:

Comma delimited format used in spreadsheet applications
http://www.bom.gov.au/fwo/IDW60801/IDW60801.94637.axf

JavaScript Object Notation format (JSON) in row-major order
http://www.bom.gov.au/fwo/IDW60801/IDW60801.94637.json